Time;durP1;ratioP1;P1;durP2;ratioP2;P2;SDS_P1;SDS_P2;PMS_P1;PMS_P2;Temp;Humidity;BMP_temperature;BMP_pressure;BME280_temperature;BME280_humidity;BME280_pressure;Samples;Min_cycle;Max_cycle;Signal;HPM_P1;HPM_P2
2023/10/14 00:01:24;;;;;;;10.10;5.47;;;;;;;;;;4996781;28;20040;-30
2023/10/14 00:03:51;;;;;;;7.80;4.80;;;;;;;;;;4996673;28;20098;-31
2023/10/14 00:06:20;;;;;;;7.20;5.15;;;;;;;;;;4996557;28;20536;-31
2023/10/14 00:08:57;;;;;;;8.60;5.40;;;;;;;;;;4996606;28;20034;-32
2023/10/14 00:11:32;;;;;;;7.57;5.97;;;;;;;;;;4996931;28;20084;-29
2023/10/14 00:13:59;;;;;;;6.55;5.95;;;;;;;;;;4996514;28;20034;-31
2023/10/14 00:18:59;;;;;;;6.15;5.55;;;;;;;;;;4996329;28;20085;-27
2023/10/14 00:21:26;;;;;;;5.93;5.33;;;;;;;;;;4996669;28;20026;-30
2023/10/14 00:23:56;;;;;;;10.57;5.30;;;;;;;;;;4996297;28;20253;-32
2023/10/14 00:26:23;;;;;;;5.60;5.05;;;;;;;;;;4996564;28;20345;-30
2023/10/14 00:28:54;;;;;;;6.03;4.78;;;;;;;;;;4996534;28;20353;-30
2023/10/14 00:31:21;;;;;;;6.57;5.38;;;;;;;;;;4996510;28;20034;-27
2023/10/14 00:33:48;;;;;;;6.38;5.78;;;;;;;;;;4996154;28;20029;-32
2023/10/14 00:36:16;;;;;;;6.95;5.43;;;;;;;;;;4995740;28;20030;-28
2023/10/14 00:38:45;;;;;;;12.30;5.10;;;;;;;;;;4996025;28;20034;-31
2023/10/14 00:41:12;;;;;;;6.15;5.55;;;;;;;;;;4996034;28;20110;-31
2023/10/14 00:43:41;;;;;;;7.60;5.45;;;;;;;;;;4996008;28;20022;-29
2023/10/14 00:46:16;;;;;;;6.25;4.25;;;;;;;;;;4995867;28;20070;-31
2023/10/14 00:48:46;;;;;;;7.85;5.70;;;;;;;;;;4996172;28;20031;-31
2023/10/14 00:51:13;;;;;;;9.18;5.50;;;;;;;;;;4996194;28;20370;-30
2023/10/14 00:53:46;;;;;;;5.38;4.85;;;;;;;;;;4978664;28;20034;-31
2023/10/14 00:56:18;;;;;;;7.82;5.85;;;;;;;;;;4995939;28;20121;-30
2023/10/14 00:58:48;;;;;;;7.18;5.15;;;;;;;;;;4995710;28;20088;-27
2023/10/14 01:01:17;;;;;;;6.13;5.53;;;;;;;;;;4995700;28;20519;-31
2023/10/14 01:03:48;;;;;;;6.57;5.35;;;;;;;;;;4995880;28;20030;-30
2023/10/14 01:06:23;;;;;;;;;;;;;;;;;;4995937;28;20105;-30
2023/10/14 01:08:52;;;;;;;5.10;4.60;;;;;;;;;;4995535;28;20298;-30
2023/10/14 01:11:19;;;;;;;5.30;4.80;;;;;;;;;;4978361;28;20110;-30
2023/10/14 01:13:45;;;;;;;7.97;5.20;;;;;;;;;;4996514;28;20026;-31
2023/10/14 01:16:12;;;;;;;5.85;5.28;;;;;;;;;;4995317;28;20030;-31
2023/10/14 01:18:39;;;;;;;8.32;5.95;;;;;;;;;;4995644;28;20023;-29
2023/10/14 01:21:06;;;;;;;5.97;4.93;;;;;;;;;;4995396;28;20026;-33
2023/10/14 01:23:38;;;;;;;5.72;5.13;;;;;;;;;;4995675;28;20480;-32
2023/10/14 01:26:05;;;;;;;5.85;5.32;;;;;;;;;;4995283;28;20039;-30
2023/10/14 01:28:32;;;;;;;7.25;6.60;;;;;;;;;;4994439;28;20097;-32
2023/10/14 01:31:22;;;;;;;6.65;4.80;;;;;;;;;;4995176;28;20034;-28
2023/10/14 01:33:48;;;;;;;6.53;4.88;;;;;;;;;;4995496;28;20095;-28
2023/10/14 01:36:15;;;;;;;5.40;4.90;;;;;;;;;;4994853;28;20030;-29
2023/10/14 01:38:48;;;;;;;6.95;5.50;;;;;;;;;;4995224;28;20034;-32
2023/10/14 01:41:14;;;;;;;7.53;5.82;;;;;;;;;;4995172;28;20043;-32
2023/10/14 01:43:41;;;;;;;5.68;5.18;;;;;;;;;;4995194;28;20379;-33
2023/10/14 01:46:10;;;;;;;6.63;5.00;;;;;;;;;;4977924;28;20456;-30
2023/10/14 01:48:44;;;;;;;5.07;4.68;;;;;;;;;;4995373;28;20369;-31
2023/10/14 01:51:10;;;;;;;5.75;5.07;;;;;;;;;;4995397;28;20462;-31
2023/10/14 01:53:38;;;;;;;10.32;4.82;;;;;;;;;;4995349;28;20435;-32
2023/10/14 01:56:06;;;;;;;5.65;5.00;;;;;;;;;;4995217;28;20026;-28
2023/10/14 01:58:32;;;;;;;6.13;5.50;;;;;;;;;;4994994;28;20477;-30
2023/10/14 02:03:46;;;;;;;5.78;5.00;;;;;;;;;;4995402;28;20029;-29
2023/10/14 02:06:30;;;;;;;5.57;4.97;;;;;;;;;;4995147;28;20038;-32
2023/10/14 02:09:04;;;;;;;7.85;5.22;;;;;;;;;;4995502;28;20034;-31
2023/10/14 02:11:33;;;;;;;6.65;5.95;;;;;;;;;;4994990;28;20022;-30
2023/10/14 02:14:06;;;;;;;5.05;4.60;;;;;;;;;;4994902;28;20148;-30
2023/10/14 02:16:40;;;;;;;5.13;4.63;;;;;;;;;;4994993;28;20460;-30
2023/10/14 02:21:57;;;;;;;8.30;4.47;;;;;;;;;;4994901;28;20346;-32
2023/10/14 02:24:25;;;;;;;4.65;4.25;;;;;;;;;;4994814;28;20492;-30
2023/10/14 02:26:51;;;;;;;5.63;5.10;;;;;;;;;;4994652;28;20161;-31
2023/10/14 02:29:17;;;;;;;9.95;5.05;;;;;;;;;;4994788;28;20101;-30
2023/10/14 02:31:45;;;;;;;6.18;4.78;;;;;;;;;;4994772;28;20022;-29
2023/10/14 02:34:14;;;;;;;6.93;4.85;;;;;;;;;;4994939;28;20042;-30
2023/10/14 02:36:50;;;;;;;4.97;4.50;;;;;;;;;;4994733;28;20044;-30
2023/10/14 02:39:27;;;;;;;4.97;4.50;;;;;;;;;;4994732;28;20054;-32
2023/10/14 02:42:15;;;;;;;7.05;6.18;;;;;;;;;;4998665;28;20084;-30
2023/10/14 02:44:48;;;;;;;5.75;5.25;;;;;;;;;;4998064;28;20034;-27
2023/10/14 02:47:19;;;;;;;9.35;5.15;;;;;;;;;;4998191;28;20453;-26
2023/10/14 02:49:53;;;;;;;5.38;4.88;;;;;;;;;;4998349;28;20034;-30
2023/10/14 02:52:28;;;;;;;9.05;5.25;;;;;;;;;;4998074;28;20110;-30
2023/10/14 02:54:55;;;;;;;6.13;5.22;;;;;;;;;;4997936;28;20521;-30
2023/10/14 02:59:48;;;;;;;8.55;5.38;;;;;;;;;;4997914;28;20050;-30
2023/10/14 03:02:16;;;;;;;5.68;5.10;;;;;;;;;;4998120;28;20129;-28
2023/10/14 03:07:29;;;;;;;5.05;4.65;;;;;;;;;;4997779;28;20413;-29
2023/10/14 03:10:18;;;;;;;6.20;5.70;;;;;;;;;;4998050;28;20030;-29
2023/10/14 03:12:51;;;;;;;6.47;4.82;;;;;;;;;;4998547;28;20350;-30
2023/10/14 03:15:21;;;;;;;5.88;5.30;;;;;;;;;;4997823;28;20038;-28
2023/10/14 03:17:58;;;;;;;6.15;4.72;;;;;;;;;;4997829;28;20134;-30
2023/10/14 03:22:57;;;;;;;5.55;5.03;;;;;;;;;;4997520;28;20026;-28
2023/10/14 03:25:23;;;;;;;4.70;4.18;;;;;;;;;;4997377;28;20114;-29
2023/10/14 03:27:58;;;;;;;7.55;5.25;;;;;;;;;;4997386;28;20022;-30
2023/10/14 03:30:25;;;;;;;4.75;4.35;;;;;;;;;;4997678;28;20034;-30
2023/10/14 03:32:51;;;;;;;8.95;5.15;;;;;;;;;;4997300;28;20464;-31
2023/10/14 03:35:21;;;;;;;5.68;5.13;;;;;;;;;;4997489;28;20095;-32
2023/10/14 03:37:54;;;;;;;6.43;5.82;;;;;;;;;;4996941;28;20046;-32
2023/10/14 03:40:51;;;;;;;5.20;4.55;;;;;;;;;;4997759;28;20374;-29
2023/10/14 03:43:19;;;;;;;5.85;5.13;;;;;;;;;;4980843;28;20464;-28
2023/10/14 03:45:53;;;;;;;6.13;4.85;;;;;;;;;;4997502;28;20128;-31
2023/10/14 03:48:45;;;;;;;4.82;4.32;;;;;;;;;;4997044;28;20088;-31
2023/10/14 03:51:10;;;;;;;6.25;5.65;;;;;;;;;;4996105;28;20117;-30
2023/10/14 03:53:36;;;;;;;6.75;5.32;;;;;;;;;;4996430;28;20480;-30
2023/10/14 03:56:04;;;;;;;4.50;4.10;;;;;;;;;;4996749;28;20033;-31
2023/10/14 03:58:37;;;;;;;5.35;4.85;;;;;;;;;;4996830;28;20030;-29
2023/10/14 04:01:03;;;;;;;5.75;4.72;;;;;;;;;;4997138;28;20027;-27
2023/10/14 04:03:51;;;;;;;4.97;4.50;;;;;;;;;;4997009;28;20034;-30
2023/10/14 04:06:19;;;;;;;4.90;4.45;;;;;;;;;;4996953;28;20030;-30
2023/10/14 04:08:47;;;;;;;5.43;4.97;;;;;;;;;;4996596;28;20547;-30
2023/10/14 04:11:15;;;;;;;5.53;4.82;;;;;;;;;;4996637;28;20405;-33
2023/10/14 04:13:51;;;;;;;6.88;4.43;;;;;;;;;;4996583;28;20061;-28
2023/10/14 04:16:27;;;;;;;4.45;4.07;;;;;;;;;;4996351;28;20110;-27
2023/10/14 04:18:59;;;;;;;4.65;4.25;;;;;;;;;;4996752;28;20030;-31
2023/10/14 04:21:35;;;;;;;4.97;4.57;;;;;;;;;;4996370;28;20526;-27
2023/10/14 04:24:09;;;;;;;4.85;4.45;;;;;;;;;;4996341;28;20030;-31
2023/10/14 04:26:36;;;;;;;4.68;4.28;;;;;;;;;;4996536;28;20433;-30
2023/10/14 04:29:04;;;;;;;6.20;5.70;;;;;;;;;;4979126;28;20038;-32
2023/10/14 04:31:39;;;;;;;4.75;3.80;;;;;;;;;;4996182;28;20508;-32
2023/10/14 04:34:10;;;;;;;5.53;5.10;;;;;;;;;;4996230;28;20030;-28
2023/10/14 04:36:37;;;;;;;6.82;4.72;;;;;;;;;;4995954;28;20145;-30
2023/10/14 04:39:15;;;;;;;6.60;4.50;;;;;;;;;;4996138;28;20405;-30
2023/10/14 04:44:37;;;;;;;5.03;4.28;;;;;;;;;;4996518;28;20073;-31
2023/10/14 04:47:06;;;;;;;4.55;4.15;;;;;;;;;;4996146;28;20121;-27
2023/10/14 04:49:38;;;;;;;4.80;4.47;;;;;;;;;;4995929;28;20058;-27
2023/10/14 04:52:05;;;;;;;5.30;4.90;;;;;;;;;;4996193;28;20405;-30
2023/10/14 04:54:34;;;;;;;6.47;4.50;;;;;;;;;;4996071;28;20026;-31
2023/10/14 04:57:12;;;;;;;4.20;3.80;;;;;;;;;;4995632;28;20106;-28
2023/10/14 04:59:38;;;;;;;4.40;4.00;;;;;;;;;;4996039;28;20022;-30
2023/10/14 05:02:04;;;;;;;5.40;4.90;;;;;;;;;;4995717;28;20030;-32
2023/10/14 05:04:37;;;;;;;5.00;4.50;;;;;;;;;;4996072;28;20030;-32
2023/10/14 05:07:05;;;;;;;5.00;4.63;;;;;;;;;;4995535;28;20480;-29
2023/10/14 05:09:31;;;;;;;4.50;4.10;;;;;;;;;;4995604;28;20037;-29
2023/10/14 05:11:58;;;;;;;7.70;4.80;;;;;;;;;;4995766;28;20108;-32
2023/10/14 05:14:36;;;;;;;4.53;4.13;;;;;;;;;;4995480;28;20037;-31
2023/10/14 05:19:44;;;;;;;5.20;4.80;;;;;;;;;;4995511;28;20033;-27
2023/10/14 05:22:13;;;;;;;4.70;4.30;;;;;;;;;;4995388;28;20027;-36
2023/10/14 05:24:45;;;;;;;6.40;4.38;;;;;;;;;;4995665;28;20438;-31
2023/10/14 05:27:11;;;;;;;4.65;4.25;;;;;;;;;;4995535;28;20445;-30
2023/10/14 05:29:37;;;;;;;5.38;4.38;;;;;;;;;;4995582;28;20022;-29
2023/10/14 05:32:10;;;;;;;4.78;4.28;;;;;;;;;;4995543;28;20028;-30
2023/10/14 05:34:43;;;;;;;4.80;4.40;;;;;;;;;;4995560;28;20034;-27
2023/10/14 05:37:11;;;;;;;5.13;4.53;;;;;;;;;;4994865;28;20057;-29
2023/10/14 05:39:38;;;;;;;5.30;4.80;;;;;;;;;;4995741;28;20029;-29
2023/10/14 05:42:13;;;;;;;5.70;4.63;;;;;;;;;;4995443;28;20022;-28
2023/10/14 05:44:46;;;;;;;4.75;4.35;;;;;;;;;;4995445;28;20030;-31
2023/10/14 05:47:13;;;;;;;4.90;4.50;;;;;;;;;;4995357;28;20030;-33
2023/10/14 05:49:39;;;;;;;7.43;4.93;;;;;;;;;;4995410;28;20023;-31
2023/10/14 05:52:05;;;;;;;4.75;4.22;;;;;;;;;;4995041;28;20050;-29
2023/10/14 05:54:31;;;;;;;5.80;4.50;;;;;;;;;;4995338;28;20049;-30
2023/10/14 05:56:57;;;;;;;4.75;4.35;;;;;;;;;;4994893;28;20037;-30
2023/10/14 05:59:24;;;;;;;4.18;3.72;;;;;;;;;;4995062;28;20461;-29
2023/10/14 06:01:51;;;;;;;4.22;3.92;;;;;;;;;;4995275;28;20048;-29
2023/10/14 06:04:17;;;;;;;4.60;4.15;;;;;;;;;;4995012;28;20029;-29
2023/10/14 06:06:44;;;;;;;4.82;4.53;;;;;;;;;;4994878;28;20081;-29
2023/10/14 06:09:10;;;;;;;6.50;4.55;;;;;;;;;;4994973;28;20030;-29
2023/10/14 06:11:36;;;;;;;5.15;4.65;;;;;;;;;;4994975;28;20360;-31
2023/10/14 06:14:03;;;;;;;4.18;3.88;;;;;;;;;;4977763;28;20469;-30
2023/10/14 06:16:31;;;;;;;5.15;4.75;;;;;;;;;;4998053;28;20458;-26
2023/10/14 06:18:58;;;;;;;6.50;5.05;;;;;;;;;;4998602;28;20034;-29
2023/10/14 06:21:27;;;;;;;4.70;4.13;;;;;;;;;;4998628;28;20074;-29
2023/10/14 06:23:56;;;;;;;4.38;3.97;;;;;;;;;;4998806;28;20018;-29
2023/10/14 06:26:22;;;;;;;5.05;4.53;;;;;;;;;;4982124;28;20446;-27
2023/10/14 06:28:50;;;;;;;4.07;3.83;;;;;;;;;;4998769;28;20057;-30
2023/10/14 06:31:20;;;;;;;4.35;4.05;;;;;;;;;;4998514;28;20160;-30
2023/10/14 06:33:46;;;;;;;3.92;3.72;;;;;;;;;;4998461;28;20058;-30
2023/10/14 06:36:14;;;;;;;5.03;4.60;;;;;;;;;;4980906;28;20023;-30
2023/10/14 06:38:44;;;;;;;4.45;4.15;;;;;;;;;;4998285;28;20042;-31
2023/10/14 06:41:11;;;;;;;3.50;3.28;;;;;;;;;;4998576;28;20034;-28
2023/10/14 06:43:39;;;;;;;5.55;4.97;;;;;;;;;;4998267;28;20070;-27
2023/10/14 06:46:05;;;;;;;4.43;4.03;;;;;;;;;;4998040;28;20030;-30
2023/10/14 06:48:32;;;;;;;4.25;3.85;;;;;;;;;;4998769;28;20035;-28
2023/10/14 06:50:59;;;;;;;5.35;4.15;;;;;;;;;;4998355;28;20109;-29
2023/10/14 06:53:29;;;;;;;4.18;3.88;;;;;;;;;;4998334;28;20105;-30
2023/10/14 06:55:55;;;;;;;4.35;3.95;;;;;;;;;;4998096;28;20037;-29
2023/10/14 06:58:22;;;;;;;4.57;4.15;;;;;;;;;;4997911;28;20022;-31
2023/10/14 07:00:52;;;;;;;5.05;3.95;;;;;;;;;;4998462;28;20018;-28
2023/10/14 07:03:18;;;;;;;4.37;4.07;;;;;;;;;;4998246;28;20354;-31
2023/10/14 07:05:56;;;;;;;4.45;4.15;;;;;;;;;;4997780;28;20033;-31
2023/10/14 07:08:32;;;;;;;5.95;3.95;;;;;;;;;;4998144;28;20492;-27
2023/10/14 07:11:00;;;;;;;5.28;3.80;;;;;;;;;;4998022;28;20370;-30
2023/10/14 07:13:27;;;;;;;5.07;4.47;;;;;;;;;;4997717;28;20037;-31
2023/10/14 07:15:53;;;;;;;4.53;4.18;;;;;;;;;;4997555;28;20022;-31
2023/10/14 07:18:23;;;;;;;4.65;4.35;;;;;;;;;;4997899;28;20030;-29
2023/10/14 07:20:59;;;;;;;6.35;4.10;;;;;;;;;;4997817;28;20022;-30
2023/10/14 07:23:26;;;;;;;3.83;3.53;;;;;;;;;;4997805;28;20034;-31
2023/10/14 07:25:52;;;;;;;4.10;3.80;;;;;;;;;;4997293;28;20064;-26
2023/10/14 07:28:19;;;;;;;3.88;3.58;;;;;;;;;;4996595;28;20409;-32
2023/10/14 07:30:49;;;;;;;5.40;4.03;;;;;;;;;;4997331;28;20085;-28
2023/10/14 07:33:17;;;;;;;4.32;3.92;;;;;;;;;;4997648;28;20034;-31
2023/10/14 07:35:43;;;;;;;4.47;4.07;;;;;;;;;;4997196;28;20026;-29
2023/10/14 07:38:10;;;;;;;7.38;4.03;;;;;;;;;;4997369;28;20078;-28
2023/10/14 07:40:37;;;;;;;4.30;3.90;;;;;;;;;;4997158;28;20124;-27
2023/10/14 07:43:07;;;;;;;4.15;3.85;;;;;;;;;;4997173;28;20046;-31
2023/10/14 07:45:35;;;;;;;3.90;3.60;;;;;;;;;;4997178;28;20449;-27
2023/10/14 07:48:11;;;;;;;4.95;4.60;;;;;;;;;;4997648;28;20397;-28
2023/10/14 07:50:37;;;;;;;4.63;4.22;;;;;;;;;;4997385;28;20042;-31
2023/10/14 07:53:13;;;;;;;4.50;4.20;;;;;;;;;;4997020;28;20026;-27
2023/10/14 07:55:40;;;;;;;4.35;3.97;;;;;;;;;;4996755;28;20101;-29
2023/10/14 07:58:08;;;;;;;8.38;4.45;;;;;;;;;;4997152;28;20396;-29
2023/10/14 08:00:40;;;;;;;4.68;4.35;;;;;;;;;;4996851;28;20019;-30
2023/10/14 08:03:07;;;;;;;4.82;4.43;;;;;;;;;;4996779;28;20022;-29
2023/10/14 08:05:38;;;;;;;4.75;4.32;;;;;;;;;;4996699;28;20026;-30
2023/10/14 08:08:09;;;;;;;4.78;3.75;;;;;;;;;;4997008;28;20089;-32
2023/10/14 08:10:35;;;;;;;;;;;;;;;;;;4997372;28;20473;-26
2023/10/14 08:13:08;;;;;;;4.90;3.40;;;;;;;;;;4979441;28;19905;-29
2023/10/14 08:15:35;;;;;;;4.40;4.00;;;;;;;;;;4996772;28;20030;-31
2023/10/14 08:18:04;;;;;;;4.47;4.13;;;;;;;;;;4996524;28;20038;-29
2023/10/14 08:20:31;;;;;;;4.35;3.97;;;;;;;;;;4996707;28;20022;-26
2023/10/14 08:22:57;;;;;;;5.03;4.05;;;;;;;;;;4996381;28;20034;-30
2023/10/14 08:25:28;;;;;;;4.07;3.78;;;;;;;;;;4996646;28;20361;-26
2023/10/14 08:27:57;;;;;;;4.40;4.00;;;;;;;;;;4996570;28;20112;-30
2023/10/14 08:30:24;;;;;;;5.22;3.80;;;;;;;;;;4979127;28;20041;-31
2023/10/14 08:32:53;;;;;;;4.03;3.63;;;;;;;;;;4996438;28;20065;-32
2023/10/14 08:35:19;;;;;;;3.95;3.65;;;;;;;;;;4996375;28;20082;-30
2023/10/14 08:37:48;;;;;;;6.63;4.47;;;;;;;;;;4994915;28;20474;-29
2023/10/14 08:40:19;;;;;;;4.75;4.28;;;;;;;;;;4996385;28;20038;-32
2023/10/14 08:42:55;;;;;;;4.57;4.10;;;;;;;;;;4996323;28;20048;-27
2023/10/14 08:45:22;;;;;;;3.88;3.58;;;;;;;;;;4996298;28;20030;-27
2023/10/14 08:47:50;;;;;;;3.88;3.58;;;;;;;;;;4995869;28;20030;-31
2023/10/14 08:50:18;;;;;;;4.25;3.95;;;;;;;;;;4995813;28;20045;-26
2023/10/14 08:52:45;;;;;;;4.85;4.40;;;;;;;;;;4978775;28;20026;-31
2023/10/14 08:55:15;;;;;;;4.40;3.70;;;;;;;;;;4995764;28;20469;-29
2023/10/14 08:57:44;;;;;;;4.47;4.07;;;;;;;;;;4995760;28;20442;-29
2023/10/14 09:00:12;;;;;;;4.43;4.03;;;;;;;;;;4995688;28;20038;-27
2023/10/14 09:02:41;;;;;;;5.50;3.72;;;;;;;;;;4995964;28;20350;-30
2023/10/14 09:05:11;;;;;;;4.05;3.65;;;;;;;;;;4978512;28;20448;-29
2023/10/14 09:07:38;;;;;;;4.15;3.53;;;;;;;;;;4995576;28;20023;-31
2023/10/14 09:10:05;;;;;;;4.13;3.72;;;;;;;;;;4996604;28;20027;-30
2023/10/14 09:12:32;;;;;;;4.07;3.78;;;;;;;;;;4995566;28;20362;-31
2023/10/14 09:14:58;;;;;;;3.40;3.10;;;;;;;;;;4995775;28;20034;-27
2023/10/14 09:17:24;;;;;;;5.25;3.80;;;;;;;;;;4995403;28;20023;-30
2023/10/14 09:19:50;;;;;;;5.50;5.03;;;;;;;;;;4995461;28;20062;-31
2023/10/14 09:22:23;;;;;;;4.25;3.70;;;;;;;;;;4995441;28;20100;-30
2023/10/14 09:24:57;;;;;;;5.25;4.75;;;;;;;;;;4995321;28;20030;-29
2023/10/14 09:27:25;;;;;;;3.58;3.28;;;;;;;;;;4995882;28;20019;-30
2023/10/14 09:29:51;;;;;;;4.20;3.80;;;;;;;;;;4995364;28;20018;-30
2023/10/14 09:32:17;;;;;;;4.70;3.80;;;;;;;;;;4995838;28;20113;-30
2023/10/14 09:34:43;;;;;;;5.38;4.88;;;;;;;;;;4978216;28;20036;-31
2023/10/14 09:37:13;;;;;;;4.40;3.58;;;;;;;;;;4995270;28;20026;-31
2023/10/14 09:39:41;;;;;;;3.72;3.42;;;;;;;;;;4995201;28;20112;-27
2023/10/14 09:42:12;;;;;;;3.95;3.65;;;;;;;;;;4995205;28;20022;-29
2023/10/14 09:44:42;;;;;;;4.22;3.83;;;;;;;;;;4995478;28;20041;-29
2023/10/14 09:47:13;;;;;;;3.55;3.25;;;;;;;;;;4995253;28;20018;-31
2023/10/14 09:49:39;;;;;;;3.85;3.25;;;;;;;;;;4995630;28;20062;-25
2023/10/14 09:52:07;;;;;;;4.43;4.03;;;;;;;;;;4999464;28;20037;-29
2023/10/14 09:54:34;;;;;;;3.38;3.10;;;;;;;;;;4999125;28;20485;-30
2023/10/14 09:57:01;;;;;;;4.28;3.88;;;;;;;;;;4999251;28;20030;-29
2023/10/14 09:59:31;;;;;;;4.15;3.75;;;;;;;;;;4999364;28;20019;-30
2023/10/14 10:01:57;;;;;;;8.48;5.38;;;;;;;;;;4999557;28;20349;-31
2023/10/14 10:04:27;;;;;;;4.10;3.80;;;;;;;;;;4999078;28;20022;-30
2023/10/14 10:07:15;;;;;;;4.30;4.00;;;;;;;;;;4999102;28;20037;-29
2023/10/14 10:10:07;;;;;;;3.63;3.42;;;;;;;;;;4998881;28;20034;-30
2023/10/14 10:12:37;;;;;;;3.75;3.42;;;;;;;;;;4999121;28;20045;-30
2023/10/14 10:15:06;;;;;;;4.40;4.00;;;;;;;;;;4998757;28;20037;-28
2023/10/14 10:17:34;;;;;;;4.35;3.97;;;;;;;;;;4998705;28;20085;-31
2023/10/14 10:20:09;;;;;;;4.10;3.70;;;;;;;;;;4998992;28;20022;-32
2023/10/14 10:22:51;;;;;;;5.15;3.88;;;;;;;;;;4998675;28;20029;-29
2023/10/14 10:25:21;;;;;;;3.55;3.35;;;;;;;;;;4998862;28;20058;-29
2023/10/14 10:27:55;;;;;;;4.10;3.40;;;;;;;;;;4998522;28;20478;-27
2023/10/14 10:30:22;;;;;;;4.82;3.70;;;;;;;;;;4998495;28;20026;-31
2023/10/14 10:32:52;;;;;;;5.25;3.95;;;;;;;;;;4981255;28;20022;-29
2023/10/14 10:35:19;;;;;;;4.85;4.35;;;;;;;;;;4998590;28;20104;-28
2023/10/14 10:37:46;;;;;;;4.68;4.28;;;;;;;;;;4981225;28;20132;-29
2023/10/14 10:40:14;;;;;;;4.97;4.47;;;;;;;;;;4998405;28;20028;-31
2023/10/14 10:42:42;;;;;;;4.47;4.07;;;;;;;;;;4998563;28;20382;-29
2023/10/14 10:45:20;;;;;;;4.10;3.75;;;;;;;;;;4998481;28;20022;-29
2023/10/14 10:47:57;;;;;;;4.05;3.75;;;;;;;;;;4998107;28;20018;-30
2023/10/14 10:50:26;;;;;;;5.35;3.95;;;;;;;;;;4998409;28;20018;-30
2023/10/14 10:52:54;;;;;;;4.20;3.90;;;;;;;;;;4998096;28;20022;-29
2023/10/14 10:55:23;;;;;;;3.75;3.45;;;;;;;;;;4981686;28;20046;-27
2023/10/14 10:57:50;;;;;;;3.60;3.30;;;;;;;;;;4998193;28;20390;-31
2023/10/14 11:00:17;;;;;;;4.15;3.65;;;;;;;;;;4998265;28;20041;-28
2023/10/14 11:02:44;;;;;;;3.90;3.40;;;;;;;;;;4997540;28;20026;-31
2023/10/14 11:05:11;;;;;;;4.00;3.60;;;;;;;;;;4997896;28;20053;-27
2023/10/14 11:07:38;;;;;;;4.13;3.60;;;;;;;;;;4998293;28;20015;-29
2023/10/14 11:10:04;;;;;;;5.13;3.28;;;;;;;;;;4998053;28;20022;-28
2023/10/14 11:12:34;;;;;;;5.40;3.80;;;;;;;;;;4997798;28;20457;-29
2023/10/14 11:15:01;;;;;;;4.40;3.88;;;;;;;;;;4997727;28;20058;-30
2023/10/14 11:17:27;;;;;;;4.40;4.00;;;;;;;;;;4997603;28;20030;-29
2023/10/14 11:19:53;;;;;;;3.67;3.38;;;;;;;;;;4997595;28;20037;-30
2023/10/14 11:22:20;;;;;;;4.30;3.90;;;;;;;;;;4997876;28;20023;-30
2023/10/14 11:24:47;;;;;;;5.38;3.38;;;;;;;;;;4997545;28;20089;-29
2023/10/14 11:27:13;;;;;;;4.18;3.80;;;;;;;;;;4997510;28;20034;-26
2023/10/14 11:29:41;;;;;;;3.90;3.60;;;;;;;;;;4997773;28;20026;-31
2023/10/14 11:32:12;;;;;;;3.72;3.42;;;;;;;;;;4997405;28;20030;-30
2023/10/14 11:34:41;;;;;;;3.65;3.35;;;;;;;;;;4997417;28;20037;-29
2023/10/14 11:37:11;;;;;;;4.90;4.50;;;;;;;;;;4997139;28;20126;-32
2023/10/14 11:39:37;;;;;;;3.92;3.53;;;;;;;;;;4997104;28;20053;-30
2023/10/14 11:42:03;;;;;;;4.47;3.45;;;;;;;;;;4997216;28;20022;-29
2023/10/14 11:44:29;;;;;;;4.70;3.50;;;;;;;;;;4997192;28;20022;-29
2023/10/14 11:46:57;;;;;;;3.72;3.42;;;;;;;;;;4997282;28;20081;-29
2023/10/14 11:49:23;;;;;;;5.60;4.22;;;;;;;;;;4997044;28;20027;-31
2023/10/14 11:51:50;;;;;;;4.00;3.65;;;;;;;;;;4997029;28;20107;-30
2023/10/14 11:54:17;;;;;;;4.32;3.70;;;;;;;;;;4997260;28;20121;-30
2023/10/14 11:56:43;;;;;;;4.15;3.72;;;;;;;;;;4997060;28;20409;-29
2023/10/14 11:59:13;;;;;;;3.97;3.67;;;;;;;;;;4996874;28;20049;-27
2023/10/14 12:01:44;;;;;;;4.20;3.22;;;;;;;;;;4997121;28;20046;-27
2023/10/14 12:04:11;;;;;;;3.42;3.22;;;;;;;;;;4996767;28;20054;-32
2023/10/14 12:06:37;;;;;;;4.40;4.07;;;;;;;;;;4996688;28;20056;-29
2023/10/14 12:09:05;;;;;;;3.63;3.42;;;;;;;;;;4996699;28;20037;-29
2023/10/14 12:11:41;;;;;;;3.65;3.35;;;;;;;;;;4996600;28;20030;-30
2023/10/14 12:14:08;;;;;;;4.03;3.67;;;;;;;;;;4995865;28;20057;-29
2023/10/14 12:16:34;;;;;;;3.60;3.40;;;;;;;;;;4979299;28;20361;-31
2023/10/14 12:19:00;;;;;;;3.40;3.10;;;;;;;;;;4996763;28;20022;-30
2023/10/14 12:21:26;;;;;;;4.00;3.70;;;;;;;;;;4996726;28;20049;-30
2023/10/14 12:23:54;;;;;;;4.18;3.88;;;;;;;;;;4996929;28;20370;-31
2023/10/14 12:26:22;;;;;;;4.07;3.78;;;;;;;;;;4996871;28;20022;-28
2023/10/14 12:28:49;;;;;;;3.65;3.35;;;;;;;;;;4979143;28;20034;-32
2023/10/14 12:31:16;;;;;;;3.92;3.63;;;;;;;;;;4996293;28;20049;-30
2023/10/14 12:33:43;;;;;;;3.95;3.65;;;;;;;;;;4996513;28;20023;-31
2023/10/14 12:36:10;;;;;;;4.18;3.60;;;;;;;;;;4978897;28;20034;-30
2023/10/14 12:38:38;;;;;;;5.30;4.18;;;;;;;;;;4995860;28;20125;-32
2023/10/14 12:41:06;;;;;;;3.90;3.60;;;;;;;;;;4996323;28;20130;-30
2023/10/14 12:43:39;;;;;;;4.00;3.70;;;;;;;;;;4996356;28;20018;-30
2023/10/14 12:46:09;;;;;;;6.35;3.92;;;;;;;;;;4996166;28;20414;-28
2023/10/14 12:48:39;;;;;;;3.45;3.22;;;;;;;;;;4978813;28;20058;-28
2023/10/14 12:51:11;;;;;;;3.50;3.20;;;;;;;;;;4996151;28;20121;-29
2023/10/14 12:53:37;;;;;;;4.03;3.78;;;;;;;;;;4995842;28;20417;-28
2023/10/14 12:56:04;;;;;;;3.17;2.97;;;;;;;;;;4996338;28;20034;-30
2023/10/14 12:58:31;;;;;;;4.15;3.85;;;;;;;;;;4996011;28;20049;-31
2023/10/14 13:01:05;;;;;;;4.00;3.70;;;;;;;;;;4996238;28;20390;-31
2023/10/14 13:03:32;;;;;;;4.05;3.55;;;;;;;;;;4978608;28;20026;-31
2023/10/14 13:05:59;;;;;;;3.58;3.38;;;;;;;;;;4995482;28;20109;-31
2023/10/14 13:08:25;;;;;;;3.47;3.08;;;;;;;;;;4995890;28;20062;-31
2023/10/14 13:10:52;;;;;;;5.60;3.70;;;;;;;;;;4995481;28;20093;-30
2023/10/14 13:13:19;;;;;;;3.65;3.03;;;;;;;;;;4995854;28;20049;-29
2023/10/14 13:15:47;;;;;;;4.63;4.22;;;;;;;;;;4978225;28;20030;-31
2023/10/14 13:18:13;;;;;;;3.40;3.10;;;;;;;;;;4995438;28;20026;-32
2023/10/14 13:20:40;;;;;;;3.88;3.58;;;;;;;;;;4995689;28;20101;-30
2023/10/14 13:23:11;;;;;;;3.47;3.17;;;;;;;;;;4995377;28;20038;-29
2023/10/14 13:25:37;;;;;;;4.10;3.80;;;;;;;;;;4995228;28;20045;-30
2023/10/14 13:28:11;;;;;;;3.63;3.38;;;;;;;;;;4995375;28;20045;-29
2023/10/14 13:30:50;;;;;;;4.00;3.65;;;;;;;;;;4995618;28;20026;-27
2023/10/14 13:33:16;;;;;;;4.32;3.92;;;;;;;;;;4995637;28;20030;-31
2023/10/14 13:35:43;;;;;;;3.42;3.13;;;;;;;;;;4995387;28;20022;-32
2023/10/14 13:38:13;;;;;;;3.80;3.50;;;;;;;;;;4994904;28;20130;-29
2023/10/14 13:40:40;;;;;;;3.50;3.20;;;;;;;;;;4994462;28;20029;-30
2023/10/14 13:43:06;;;;;;;4.07;3.78;;;;;;;;;;4994373;28;20030;-31
2023/10/14 13:45:33;;;;;;;3.72;3.42;;;;;;;;;;4994374;28;20030;-32
2023/10/14 13:48:06;;;;;;;3.75;3.45;;;;;;;;;;4994179;28;20105;-31
2023/10/14 13:50:37;;;;;;;3.42;3.13;;;;;;;;;;4994633;28;20338;-28
2023/10/14 13:53:09;;;;;;;3.83;3.50;;;;;;;;;;4994620;28;20030;-30
2023/10/14 13:55:36;;;;;;;3.60;3.38;;;;;;;;;;4994514;28;20105;-32
2023/10/14 13:58:06;;;;;;;4.20;3.90;;;;;;;;;;4994242;28;20023;-27
2023/10/14 14:00:40;;;;;;;3.70;3.50;;;;;;;;;;4994613;28;20026;-30
2023/10/14 14:03:07;;;;;;;3.35;3.05;;;;;;;;;;4994163;28;20109;-31
2023/10/14 14:05:34;;;;;;;4.05;3.60;;;;;;;;;;4994465;28;20027;-27
2023/10/14 14:08:00;;;;;;;3.25;3.03;;;;;;;;;;4994053;28;20034;-29
2023/10/14 14:10:26;;;;;;;4.00;3.67;;;;;;;;;;4994114;28;20027;-28
2023/10/14 14:12:53;;;;;;;3.50;3.20;;;;;;;;;;4994027;28;20164;-31
2023/10/14 14:15:27;;;;;;;4.47;4.07;;;;;;;;;;4993894;28;20034;-30
2023/10/14 14:17:54;;;;;;;4.85;3.55;;;;;;;;;;4994578;28;20026;-28
2023/10/14 14:20:22;;;;;;;3.45;3.15;;;;;;;;;;4993991;28;20042;-31
2023/10/14 14:22:48;;;;;;;4.18;3.88;;;;;;;;;;4993907;28;20030;-32
2023/10/14 14:25:14;;;;;;;3.85;3.55;;;;;;;;;;4993934;28;20069;-30
2023/10/14 14:27:44;;;;;;;3.75;3.45;;;;;;;;;;4993890;28;20026;-32
2023/10/14 14:30:12;;;;;;;4.30;3.80;;;;;;;;;;4994222;28;20461;-28
2023/10/14 14:32:39;;;;;;;4.18;3.88;;;;;;;;;;4994123;28;20506;-31
2023/10/14 14:35:08;;;;;;;4.15;3.78;;;;;;;;;;4993825;28;20057;-31
2023/10/14 14:37:45;;;;;;;3.40;3.20;;;;;;;;;;4949960;28;1350384;-28
2023/10/14 14:40:13;;;;;;;3.58;3.38;;;;;;;;;;4998678;28;20124;-30
2023/10/14 14:42:42;;;;;;;3.83;3.53;;;;;;;;;;4998605;28;20048;-33
2023/10/14 14:45:13;;;;;;;3.85;3.55;;;;;;;;;;4998559;28;20190;-32
2023/10/14 14:47:39;;;;;;;3.72;3.42;;;;;;;;;;4998721;28;20027;-30
2023/10/14 14:50:08;;;;;;;3.90;3.40;;;;;;;;;;4998187;28;20110;-30
2023/10/14 14:52:37;;;;;;;4.05;3.67;;;;;;;;;;4998167;28;20018;-30
2023/10/14 14:55:04;;;;;;;3.25;2.95;;;;;;;;;;4998128;28;20023;-29
2023/10/14 14:57:36;;;;;;;3.58;3.28;;;;;;;;;;4998243;28;20042;-29
2023/10/14 15:00:05;;;;;;;4.22;3.75;;;;;;;;;;4997973;28;20034;-31
2023/10/14 15:02:31;;;;;;;3.88;3.47;;;;;;;;;;4998258;28;20327;-30
2023/10/14 15:04:57;;;;;;;3.60;3.30;;;;;;;;;;4997907;28;20023;-31
2023/10/14 15:07:25;;;;;;;3.35;3.05;;;;;;;;;;4998085;28;20034;-30
2023/10/14 15:09:51;;;;;;;4.50;4.10;;;;;;;;;;4997846;28;20083;-29
2023/10/14 15:12:18;;;;;;;4.10;3.70;;;;;;;;;;4998066;28;20030;-30
2023/10/14 15:14:44;;;;;;;3.90;3.60;;;;;;;;;;4998054;28;20358;-31
2023/10/14 15:17:11;;;;;;;3.53;3.22;;;;;;;;;;4997569;28;20116;-31